Time;durP1;ratioP1;P1;durP2;ratioP2;P2;SDS_P1;SDS_P2;PMS_P1;PMS_P2;Temp;Humidity;BMP_temperature;BMP_pressure;BME280_temperature;BME280_humidity;BME280_pressure;Samples;Min_cycle;Max_cycle;Signal;HPM_P1;HPM_P2
2022/11/19 00:00:00;;;;;;;23.50;15.50;;;2.00;99.90;;;;;;4991143;28;20204;-89
2022/11/19 00:02:42;;;;;;;28.60;14.70;;;2.00;99.90;;;;;;5004845;28;20310;-89
2022/11/19 00:05:13;;;;;;;16.90;15.10;;;2.00;99.90;;;;;;5010855;28;20221;-90
2022/11/19 00:07:47;;;;;;;23.77;17.00;;;2.10;99.90;;;;;;4998197;28;20216;-90
2022/11/19 00:10:17;;;;;;;17.77;15.75;;;2.00;99.90;;;;;;4990980;28;20274;-89
2022/11/19 00:12:53;;;;;;;20.52;17.20;;;1.90;99.90;;;;;;4990929;28;20236;-89
2022/11/19 00:15:26;;;;;;;18.93;16.10;;;1.80;99.90;;;;;;4991813;28;20204;-90
2022/11/19 00:17:55;;;;;;;25.92;17.63;;;1.70;99.90;;;;;;5010325;28;20222;-89
2022/11/19 00:20:23;;;;;;;25.37;18.70;;;1.70;99.90;;;;;;5010814;28;20215;-89
2022/11/19 00:22:58;;;;;;;26.15;20.42;;;1.60;99.90;;;;;;5010427;28;20223;-89
2022/11/19 00:25:32;;;;;;;23.05;18.05;;;1.50;99.90;;;;;;5009089;28;20210;-90
2022/11/19 00:28:03;;;;;;;26.70;19.35;;;1.40;99.90;;;;;;5010576;28;20218;-89
2022/11/19 00:30:36;;;;;;;21.47;17.97;;;1.50;99.90;;;;;;5010579;28;20207;-90
2022/11/19 00:33:17;;;;;;;29.57;19.23;;;1.50;99.90;;;;;;5010416;28;20253;-89
2022/11/19 00:35:56;;;;;;;20.98;18.02;;;1.40;99.90;;;;;;4992847;28;20208;-90
2022/11/19 00:38:33;;;;;;;24.57;18.83;;;1.40;99.90;;;;;;4998957;28;20226;-88
2022/11/19 00:41:31;;;;;;;21.23;18.50;;;1.40;99.90;;;;;;5013276;28;20233;-88
2022/11/19 00:44:31;;;;;;;26.93;19.60;;;1.30;99.90;;;;;;5013710;28;20203;-89
2022/11/19 00:47:15;;;;;;;23.60;19.87;;;1.30;99.90;;;;;;5013488;28;20199;-88
2022/11/19 00:50:02;;;;;;;27.67;20.20;;;1.30;99.90;;;;;;4999806;28;20212;-89
2022/11/19 00:55:28;;;;;;;23.80;18.60;;;1.30;99.90;;;;;;5013208;28;20222;-90
2022/11/19 00:58:18;;;;;;;24.47;19.70;;;1.30;99.90;;;;;;5007208;28;20226;-90
2022/11/19 01:01:13;;;;;;;23.70;20.00;;;1.30;99.90;;;;;;4993989;28;20200;-90
2022/11/19 01:07:22;;;;;;;28.33;22.92;;;1.30;99.90;;;;;;5007400;28;20205;-89
2022/11/19 01:10:35;;;;;;;27.65;20.35;;;1.40;99.90;;;;;;4993992;28;20212;-90
2022/11/19 01:41:39;;;;;;;25.50;19.03;;;1.10;99.90;;;;;;5013612;28;20250;-89
2022/11/19 01:51:34;;;;;;;22.53;19.83;;;1.00;99.90;;;;;;5008923;28;20281;-89
2022/11/19 01:54:10;;;;;;;27.70;20.73;;;1.00;99.90;;;;;;5013634;28;20207;-89
2022/11/19 01:56:53;;;;;;;21.23;19.03;;;0.90;99.90;;;;;;4995184;28;20214;-89
2022/11/19 01:59:38;;;;;;;23.13;18.83;;;0.80;99.90;;;;;;4995315;28;20299;-89
2022/11/19 02:02:12;;;;;;;23.90;19.63;;;0.90;99.90;;;;;;4995389;28;20234;-89
2022/11/19 02:04:51;;;;;;;25.20;20.37;;;0.90;99.90;;;;;;5008430;28;20203;-89
2022/11/19 02:07:34;;;;;;;28.50;19.20;;;0.80;99.90;;;;;;5005839;28;20258;-89
2022/11/19 02:10:17;;;;;;;27.13;21.73;;;0.80;99.90;;;;;;5013828;28;20262;-89
2022/11/19 02:13:17;;;;;;;28.33;21.50;;;0.80;99.90;;;;;;4997334;28;20227;-89
2022/11/19 02:16:17;;;;;;;23.73;19.07;;;0.80;99.90;;;;;;4975510;28;20208;-89
2022/11/19 02:19:26;;;;;;;26.63;20.83;;;0.90;99.90;;;;;;4992092;28;20230;-89
2022/11/19 02:22:06;;;;;;;25.53;20.27;;;0.90;99.90;;;;;;5014507;28;20262;-89
2022/11/19 02:31:15;;;;;;;28.70;20.90;;;0.80;99.90;;;;;;4975669;28;20229;-89
2022/11/19 02:34:04;;;;;;;28.27;20.97;;;0.80;99.90;;;;;;4975266;28;20228;-89
2022/11/19 02:36:38;;;;;;;26.23;21.37;;;0.80;99.90;;;;;;4975992;28;20252;-89
2022/11/19 02:39:34;;;;;;;26.90;21.93;;;0.90;99.90;;;;;;4992447;28;20230;-89
2022/11/19 02:42:23;;;;;;;29.63;22.07;;;0.80;99.90;;;;;;4994699;28;20223;-89
2022/11/19 02:45:08;;;;;;;30.70;22.55;;;0.80;99.90;;;;;;5012140;28;20195;-89
2022/11/19 02:47:52;;;;;;;26.30;21.13;;;0.80;99.90;;;;;;5014217;28;20218;-89
2022/11/19 02:50:31;;;;;;;27.37;22.70;;;0.80;99.90;;;;;;5014354;28;20210;-89
2022/11/19 02:53:11;;;;;;;37.23;24.67;;;0.80;99.90;;;;;;5012907;28;20258;-89
2022/11/19 02:56:09;;;;;;;36.40;23.87;;;0.80;99.90;;;;;;4994057;28;20215;-89
2022/11/19 03:04:49;;;;;;;33.70;24.47;;;0.80;99.90;;;;;;4975073;28;20200;-90
2022/11/19 03:07:21;;;;;;;31.73;22.80;;;0.80;99.90;;;;;;4983116;28;20215;-90
2022/11/19 03:10:07;;;;;;;30.80;24.33;;;0.80;99.90;;;;;;4994566;28;20204;-90
2022/11/19 03:12:53;;;;;;;27.27;22.88;;;0.80;99.90;;;;;;4994052;28;20299;-89
2022/11/19 03:18:32;;;;;;;32.40;24.43;;;0.80;99.90;;;;;;4993888;28;20219;-89
2022/11/19 03:21:07;;;;;;;36.30;24.00;;;0.70;99.90;;;;;;4994032;28;20208;-89
2022/11/19 03:23:40;;;;;;;28.43;23.70;;;0.80;99.90;;;;;;4994365;28;20238;-89
2022/11/19 03:26:15;;;;;;;30.00;22.23;;;0.70;99.90;;;;;;5001330;28;20199;-90
2022/11/19 03:28:46;;;;;;;29.63;23.53;;;0.70;99.90;;;;;;5013739;28;20221;-90
2022/11/19 03:31:17;;;;;;;28.83;23.67;;;0.80;99.90;;;;;;5013960;28;20206;-89
2022/11/19 03:33:49;;;;;;;32.20;24.27;;;0.80;99.90;;;;;;5013787;28;20227;-89
2022/11/19 03:36:24;;;;;;;31.43;23.67;;;0.80;99.90;;;;;;5013467;28;20289;-89
2022/11/19 03:38:55;;;;;;;27.80;23.23;;;0.80;99.90;;;;;;5013575;28;20254;-90
2022/11/19 03:41:26;;;;;;;33.57;25.10;;;0.80;99.90;;;;;;5005526;28;20288;-89
2022/11/19 03:43:58;;;;;;;30.15;23.25;;;0.90;99.90;;;;;;5013622;28;20289;-90
2022/11/19 03:46:29;;;;;;;30.17;24.40;;;0.80;99.90;;;;;;5013515;28;20217;-90
2022/11/19 03:49:00;;;;;;;33.10;24.77;;;0.80;99.90;;;;;;5013751;28;20209;-89
2022/11/19 03:51:38;;;;;;;29.97;23.23;;;0.80;99.90;;;;;;5013839;28;20199;-90
2022/11/19 03:54:07;;;;;;;31.80;24.07;;;0.70;99.90;;;;;;5013902;28;20301;-89
2022/11/19 03:56:39;;;;;;;32.03;25.13;;;0.70;99.90;;;;;;4998163;28;20204;-90
2022/11/19 03:59:12;;;;;;;23.70;20.87;;;0.70;99.90;;;;;;4993775;28;20306;-89
2022/11/19 04:01:58;;;;;;;36.57;24.60;;;0.70;99.90;;;;;;4991396;28;20219;-90
2022/11/19 04:04:36;;;;;;;31.57;25.00;;;0.70;99.90;;;;;;4994006;28;20208;-90
2022/11/19 04:07:08;;;;;;;28.40;22.93;;;0.60;99.90;;;;;;4993765;28;20199;-89
2022/11/19 04:09:37;;;;;;;30.53;22.87;;;0.60;99.90;;;;;;4995826;28;20286;-90
2022/11/19 04:12:07;;;;;;;33.90;22.17;;;0.60;99.90;;;;;;4999700;28;20246;-90
2022/11/19 04:14:36;;;;;;;34.93;23.67;;;0.60;99.90;;;;;;5016990;28;20207;-91
2022/11/19 04:17:04;;;;;;;31.70;23.70;;;0.60;99.90;;;;;;5016448;28;20213;-90
2022/11/19 04:19:33;;;;;;;37.13;23.93;;;0.70;99.90;;;;;;5017088;28;20286;-90
2022/11/19 04:22:04;;;;;;;43.47;25.33;;;0.70;99.90;;;;;;5016820;28;20289;-90
2022/11/19 04:24:34;;;;;;;29.00;23.00;;;0.70;99.90;;;;;;5014040;28;20203;-90
2022/11/19 04:27:03;;;;;;;26.10;21.17;;;0.70;99.90;;;;;;4997099;28;20204;-90
2022/11/19 04:29:31;;;;;;;29.30;22.60;;;0.60;99.90;;;;;;4997289;28;20222;-90
2022/11/19 04:32:00;;;;;;;32.40;24.17;;;0.60;99.90;;;;;;4996976;28;20224;-90
2022/11/19 04:34:28;;;;;;;34.63;23.33;;;0.60;99.90;;;;;;4997254;28;20231;-89
2022/11/19 04:36:57;;;;;;;29.97;22.23;;;0.60;99.90;;;;;;4996744;28;20232;-89
2022/11/19 04:39:25;;;;;;;29.73;22.97;;;0.60;99.90;;;;;;5000187;28;20238;-89
2022/11/19 04:41:55;;;;;;;30.73;22.07;;;0.70;99.90;;;;;;5016529;28;20226;-89
2022/11/19 04:44:24;;;;;;;27.93;22.33;;;0.60;99.90;;;;;;5016401;28;20263;-90
2022/11/19 04:46:52;;;;;;;23.40;20.53;;;0.70;99.90;;;;;;5016278;28;20217;-90
2022/11/19 04:49:21;;;;;;;23.67;20.37;;;0.70;99.90;;;;;;5016380;28;20218;-89
2022/11/19 04:51:49;;;;;;;36.47;21.53;;;0.70;99.90;;;;;;5016232;28;20246;-89
2022/11/19 04:54:18;;;;;;;24.83;20.00;;;0.70;99.90;;;;;;5011663;28;20198;-90
2022/11/19 04:56:48;;;;;;;29.05;21.23;;;0.60;99.90;;;;;;4996719;28;20203;-90
2022/11/19 04:59:24;;;;;;;28.23;21.33;;;0.70;99.90;;;;;;4996661;28;20230;-89
2022/11/19 05:01:52;;;;;;;25.13;20.43;;;0.60;99.90;;;;;;4997125;28;20314;-89
2022/11/19 05:04:21;;;;;;;29.70;21.43;;;0.60;99.90;;;;;;4996047;28;20295;-89
2022/11/19 05:06:49;;;;;;;25.30;20.52;;;0.60;99.90;;;;;;4996288;28;20299;-90
2022/11/19 05:09:18;;;;;;;27.80;20.57;;;0.50;99.90;;;;;;5002313;28;20246;-90
2022/11/19 05:11:46;;;;;;;24.73;20.27;;;0.60;99.90;;;;;;5015797;28;20203;-89
2022/11/19 05:14:15;;;;;;;30.70;19.60;;;0.60;99.90;;;;;;5015659;28;20207;-90
2022/11/19 05:16:45;;;;;;;25.37;19.27;;;0.60;99.90;;;;;;5015570;28;20210;-89
2022/11/19 05:19:14;;;;;;;27.83;19.93;;;0.60;99.90;;;;;;5015553;28;20211;-89
2022/11/19 05:21:42;;;;;;;24.93;19.60;;;0.70;99.90;;;;;;5014898;28;20214;-90
2022/11/19 05:24:10;;;;;;;26.77;19.53;;;0.60;99.90;;;;;;5014967;28;20196;-89
2022/11/19 05:26:45;;;;;;;21.83;18.33;;;0.70;99.90;;;;;;5015406;28;20211;-89
2022/11/19 05:29:35;;;;;;;22.17;18.13;;;0.60;99.90;;;;;;5011089;28;20191;-89
2022/11/19 05:32:09;;;;;;;23.07;16.47;;;0.60;99.90;;;;;;5014779;28;20250;-88
2022/11/19 05:41:13;;;;;;;18.60;16.03;;;0.60;99.90;;;;;;5015174;28;20222;-89
2022/11/19 05:44:16;;;;;;;;;;;;;;;;;;;;;
2022/11/19 05:47:20;;;;;;;18.27;15.37;;;0.60;99.90;;;;;;4993951;28;20218;-88
2022/11/19 05:50:12;;;;;;;20.10;17.10;;;0.50;99.90;;;;;;4995672;28;20200;-89
2022/11/19 05:53:08;;;;;;;21.77;17.13;;;0.60;99.90;;;;;;4995406;28;20227;-89
2022/11/19 05:55:50;;;;;;;16.10;14.47;;;0.60;99.90;;;;;;4995518;28;20214;-89
2022/11/19 06:04:54;;;;;;;21.97;15.97;;;0.50;99.90;;;;;;4934134;29;20221;-88
2022/11/19 06:07:54;;;;;;;19.63;15.20;;;0.50;99.90;;;;;;4956205;28;20308;-89
2022/11/19 06:10:36;;;;;;;27.10;17.27;;;0.50;99.90;;;;;;4972651;28;20224;-89
2022/11/19 06:13:07;;;;;;;17.70;14.93;;;0.50;99.90;;;;;;4955395;28;20232;-88
2022/11/19 06:15:49;;;;;;;22.80;16.47;;;0.40;99.90;;;;;;4954489;29;20209;-89
2022/11/19 06:18:26;;;;;;;18.23;12.90;;;0.40;99.90;;;;;;4954111;29;20304;-90
2022/11/19 06:21:03;;;;;;;19.20;15.37;;;0.40;99.90;;;;;;4954362;29;20228;-89
2022/11/19 06:23:42;;;;;;;26.33;14.20;;;0.40;99.90;;;;;;4959204;28;20279;-89
2022/11/19 06:26:22;;;;;;;20.77;15.40;;;0.40;99.90;;;;;;4973342;28;20212;-89
2022/11/19 06:28:53;;;;;;;22.20;15.10;;;0.40;99.90;;;;;;4982074;28;20269;-89
2022/11/19 06:31:22;;;;;;;17.63;13.87;;;0.40;99.90;;;;;;5014522;28;20191;-89
2022/11/19 06:33:52;;;;;;;20.30;13.97;;;0.40;99.90;;;;;;5013186;28;20235;-89
2022/11/19 06:36:23;;;;;;;18.75;14.90;;;0.50;99.90;;;;;;5013732;28;20218;-88
2022/11/19 06:38:55;;;;;;;18.00;14.07;;;0.50;99.90;;;;;;4994448;28;20192;-89
2022/11/19 06:41:23;;;;;;;23.77;14.23;;;0.50;99.90;;;;;;4994568;28;20224;-88
2022/11/19 06:43:51;;;;;;;18.00;14.00;;;0.50;99.90;;;;;;4994404;28;20310;-89
2022/11/19 06:46:20;;;;;;;16.13;14.30;;;0.50;99.90;;;;;;4996320;28;20242;-88
2022/11/19 06:48:48;;;;;;;18.50;14.10;;;0.50;99.90;;;;;;4994160;28;20216;-89
2022/11/19 06:51:17;;;;;;;18.57;14.80;;;0.60;99.90;;;;;;4996669;28;20256;-89
2022/11/19 06:53:46;;;;;;;15.00;13.17;;;0.60;99.90;;;;;;5010506;28;20251;-89
2022/11/19 06:56:17;;;;;;;17.83;14.47;;;0.60;99.90;;;;;;4994614;28;20204;-89
2022/11/19 06:58:45;;;;;;;19.87;14.80;;;0.60;99.90;;;;;;4993824;28;20239;-89
2022/11/19 07:01:14;;;;;;;18.27;14.13;;;0.60;99.90;;;;;;4993727;28;20235;-89
2022/11/19 07:03:45;;;;;;;18.97;12.90;;;0.60;99.90;;;;;;4993748;28;20307;-89
2022/11/19 07:06:13;;;;;;;15.25;13.50;;;0.70;99.90;;;;;;4993985;28;20200;-89
2022/11/19 07:08:42;;;;;;;18.83;15.00;;;0.70;99.90;;;;;;4995089;28;20273;-93
2022/11/19 07:11:28;;;;;;;16.60;12.90;;;0.80;99.90;;;;;;5012321;28;20226;-89
2022/11/19 07:13:58;;;;;;;16.13;13.63;;;0.70;99.90;;;;;;5004158;28;20311;-91
2022/11/19 07:19:25;;;;;;;13.73;11.97;;;0.60;99.90;;;;;;4989732;28;20257;-89
2022/11/19 07:22:18;;;;;;;19.33;13.53;;;0.60;99.90;;;;;;5011304;28;20223;-88
2022/11/19 07:25:11;;;;;;;21.53;12.07;;;0.70;99.90;;;;;;5001836;28;20204;-89
2022/11/19 07:28:24;;;;;;;15.70;12.57;;;0.60;99.90;;;;;;4989555;28;20207;-93
2022/11/19 07:31:36;;;;;;;15.23;12.13;;;0.60;99.90;;;;;;5003076;28;20195;-88
2022/11/19 07:37:51;;;;;;;15.67;12.20;;;0.70;99.90;;;;;;5006644;28;20286;-88
2022/11/19 07:40:25;;;;;;;16.63;12.47;;;0.70;99.90;;;;;;5014472;28;20277;-95
2022/11/19 07:42:53;;;;;;;13.10;11.47;;;0.70;99.90;;;;;;5014355;28;20222;-95
2022/11/19 07:45:23;;;;;;;14.77;11.50;;;0.80;99.90;;;;;;5016232;28;20302;-91
2022/11/19 07:47:51;;;;;;;15.40;12.03;;;0.80;99.90;;;;;;5001585;28;20216;-92
2022/11/19 07:50:22;;;;;;;12.67;10.53;;;0.90;99.90;;;;;;4997482;28;20211;-93
2022/11/19 07:52:50;;;;;;;14.38;11.32;;;0.90;99.90;;;;;;5002458;28;20226;-93
2022/11/19 07:55:19;;;;;;;10.83;8.60;;;1.00;99.90;;;;;;5016242;28;20224;-94
2022/11/19 07:57:47;;;;;;;10.00;9.00;;;0.80;99.90;;;;;;5015779;28;20205;-94
2022/11/19 08:00:15;;;;;;;14.13;10.00;;;0.80;99.90;;;;;;5015372;28;20210;-93
2022/11/19 08:02:45;;;;;;;10.40;9.00;;;0.90;99.90;;;;;;5016682;28;20231;-94
2022/11/19 08:05:14;;;;;;;11.37;8.80;;;0.80;99.90;;;;;;5016338;28;20203;-94
2022/11/19 08:07:42;;;;;;;12.90;8.47;;;0.90;99.90;;;;;;5015753;28;20211;-94
2022/11/19 08:10:11;;;;;;;12.87;9.17;;;0.90;99.90;;;;;;5015941;28;20209;-94
2022/11/19 08:12:40;;;;;;;10.70;9.50;;;0.90;99.90;;;;;;5015817;28;20229;-93
2022/11/19 08:15:09;;;;;;;10.73;8.97;;;0.80;99.90;;;;;;5015737;28;20203;-94
2022/11/19 08:20:24;;;;;;;10.47;8.87;;;0.80;99.90;;;;;;5015950;28;20206;-94
2022/11/19 08:22:53;;;;;;;10.80;8.50;;;0.90;99.90;;;;;;5015996;28;20306;-93
2022/11/19 08:25:21;;;;;;;10.30;8.67;;;0.90;99.90;;;;;;5015926;28;20211;-94
2022/11/19 08:27:49;;;;;;;11.73;10.10;;;1.00;99.90;;;;;;5015360;28;20203;-93
2022/11/19 08:30:17;;;;;;;10.35;9.25;;;1.00;99.90;;;;;;5015361;28;20234;-94
2022/11/19 08:32:46;;;;;;;11.57;10.10;;;1.00;99.90;;;;;;5015229;28;20237;-93
2022/11/19 08:35:14;;;;;;;13.40;10.37;;;1.10;99.90;;;;;;5015867;28;20214;-94
2022/11/19 08:37:44;;;;;;;12.52;10.75;;;1.10;99.90;;;;;;5015340;28;20214;-94
2022/11/19 08:40:12;;;;;;;12.65;11.20;;;1.10;99.90;;;;;;5017707;28;20211;-94
2022/11/19 08:45:30;;;;;;;10.93;9.83;;;1.10;99.90;;;;;;5016129;28;20207;-94
2022/11/19 08:48:00;;;;;;;12.07;9.87;;;1.20;99.90;;;;;;5015522;28;20219;-94
2022/11/19 08:50:30;;;;;;;11.27;10.13;;;1.20;99.90;;;;;;5015746;28;20207;-95
2022/11/19 08:53:01;;;;;;;16.03;11.97;;;1.30;99.90;;;;;;5015304;28;20227;-94
2022/11/19 08:55:31;;;;;;;15.60;10.57;;;1.40;99.90;;;;;;5013752;28;20209;-94
2022/11/19 08:58:01;;;;;;;13.53;11.10;;;1.50;99.90;;;;;;5015388;28;20203;-95
2022/11/19 09:00:30;;;;;;;12.32;10.88;;;1.50;99.90;;;;;;5015693;28;20215;-95
2022/11/19 09:02:58;;;;;;;12.35;11.05;;;1.60;99.90;;;;;;5015489;28;20247;-94
2022/11/19 09:05:27;;;;;;;15.82;11.77;;;1.60;99.90;;;;;;5015842;28;20207;-94
2022/11/19 09:07:55;;;;;;;14.70;12.07;;;1.70;99.90;;;;;;5015304;28;20207;-94
2022/11/19 09:10:25;;;;;;;15.13;11.95;;;1.60;99.90;;;;;;5015287;28;20207;-93
2022/11/19 09:12:54;;;;;;;12.70;11.23;;;1.60;99.90;;;;;;5015379;28;20233;-94
2022/11/19 09:15:22;;;;;;;11.02;9.85;;;1.70;99.90;;;;;;5015587;28;20203;-94
2022/11/19 09:17:50;;;;;;;10.95;9.10;;;1.60;99.90;;;;;;5014803;28;20238;-94
2022/11/19 09:20:19;;;;;;;9.40;8.40;;;1.50;99.90;;;;;;5014969;28;20207;-94
2022/11/19 09:22:47;;;;;;;11.40;9.75;;;1.40;99.90;;;;;;5014644;28;20242;-94
2022/11/19 09:25:15;;;;;;;11.07;9.53;;;1.40;99.90;;;;;;5014993;28;20210;-93
2022/11/19 09:27:45;;;;;;;12.95;10.27;;;1.40;99.90;;;;;;5014795;28;20241;-94
2022/11/19 09:30:14;;;;;;;14.73;11.07;;;1.40;99.90;;;;;;5015026;28;20207;-94
2022/11/19 09:32:42;;;;;;;15.55;12.13;;;1.50;99.90;;;;;;5014621;28;20231;-94
2022/11/19 09:35:11;;;;;;;13.68;10.70;;;1.40;99.90;;;;;;5015007;28;20230;-94
2022/11/19 09:37:39;;;;;;;12.02;9.73;;;1.50;99.90;;;;;;5014479;28;20267;-94
2022/11/19 09:40:10;;;;;;;14.07;9.82;;;1.30;99.90;;;;;;5014731;28;20222;-93
2022/11/19 09:42:45;;;;;;;12.23;9.35;;;1.40;99.90;;;;;;5016177;28;20235;-94
2022/11/19 09:45:21;;;;;;;12.75;10.23;;;1.50;99.90;;;;;;5015606;28;20293;-93
2022/11/19 09:48:00;;;;;;;14.38;9.93;;;1.60;99.90;;;;;;5014126;28;20250;-93
2022/11/19 09:50:31;;;;;;;10.23;9.23;;;1.40;99.90;;;;;;5014376;28;20238;-93
2022/11/19 09:53:07;;;;;;;15.82;10.77;;;1.40;99.90;;;;;;5014452;28;20223;-93
2022/11/19 09:55:39;;;;;;;11.82;10.45;;;1.60;99.90;;;;;;5016133;28;20295;-93
2022/11/19 09:58:14;;;;;;;19.00;11.35;;;1.70;99.90;;;;;;5015985;28;20213;-94
2022/11/19 10:00:45;;;;;;;13.10;9.80;;;1.80;99.90;;;;;;5014681;28;20217;-94
2022/11/19 10:03:16;;;;;;;9.77;8.77;;;1.90;99.90;;;;;;5016246;28;20241;-94
2022/11/19 10:05:59;;;;;;;11.70;9.48;;;1.90;99.90;;;;;;5016253;28;20203;-95
2022/11/19 10:08:44;;;;;;;11.82;9.68;;;2.00;99.90;;;;;;5014600;28;20298;-94
2022/11/19 10:11:29;;;;;;;16.60;10.60;;;2.10;99.90;;;;;;5014502;28;20207;-94
2022/11/19 10:14:09;;;;;;;10.38;9.30;;;2.00;99.90;;;;;;5014428;28;20207;-94
2022/11/19 10:16:53;;;;;;;13.05;9.73;;;2.10;99.90;;;;;;5014181;28;20218;-94
2022/11/19 10:19:40;;;;;;;12.32;10.95;;;2.10;99.90;;;;;;5014570;28;20206;-94
2022/11/19 10:22:13;;;;;;;12.27;10.43;;;2.20;99.90;;;;;;5013717;28;20238;-94
2022/11/19 10:24:44;;;;;;;11.18;9.70;;;2.20;99.90;;;;;;5014435;28;20215;-95
2022/11/19 10:27:23;;;;;;;12.13;8.95;;;2.10;99.90;;;;;;5013898;28;20207;-95
2022/11/19 10:29:55;;;;;;;12.05;9.77;;;2.10;99.90;;;;;;5013941;28;20266;-94
2022/11/19 10:32:31;;;;;;;11.13;9.70;;;2.20;99.90;;;;;;5014371;28;20227;-94
2022/11/19 10:35:07;;;;;;;11.63;9.73;;;2.20;99.90;;;;;;5014086;28;20211;-95
2022/11/19 10:37:40;;;;;;;11.65;9.18;;;2.20;99.90;;;;;;5013616;28;20207;-94
2022/11/19 10:40:14;;;;;;;10.93;9.77;;;2.10;99.90;;;;;;5013959;28;20214;-94
2022/11/19 10:42:47;;;;;;;11.20;9.95;;;2.00;99.90;;;;;;5013813;28;20231;-94
2022/11/19 10:45:18;;;;;;;14.23;11.25;;;2.00;99.90;;;;;;5013648;28;20210;-94
2022/11/19 10:47:53;;;;;;;13.63;10.15;;;1.90;99.90;;;;;;5013695;28;20221;-94
2022/11/19 10:50:23;;;;;;;9.70;8.70;;;1.90;99.90;;;;;;5013860;28;20211;-95
2022/11/19 10:52:55;;;;;;;15.18;11.38;;;1.80;99.90;;;;;;5013650;28;20219;-94
2022/11/19 10:55:28;;;;;;;12.70;11.30;;;1.80;99.90;;;;;;5013489;28;20203;-94
2022/11/19 10:58:06;;;;;;;10.63;9.25;;;1.70;99.90;;;;;;5013670;28;20207;-94
2022/11/19 11:00:36;;;;;;;12.00;8.90;;;1.70;99.90;;;;;;5014156;28;20214;-94
2022/11/19 11:03:15;;;;;;;11.40;9.18;;;1.80;99.90;;;;;;5013189;28;20319;-95
2022/11/19 11:05:58;;;;;;;12.15;9.23;;;1.80;99.90;;;;;;5013374;28;20211;-94
2022/11/19 11:08:26;;;;;;;11.60;10.20;;;1.80;99.90;;;;;;5013470;28;20203;-94
2022/11/19 11:10:55;;;;;;;11.13;8.75;;;1.80;99.90;;;;;;5013735;28;20207;-94
2022/11/19 11:16:26;;;;;;;12.25;10.23;;;1.90;99.90;;;;;;5013101;28;20211;-94
2022/11/19 11:18:59;;;;;;;14.33;10.23;;;2.00;99.90;;;;;;5012476;28;20207;-94
2022/11/19 11:21:35;;;;;;;13.70;8.25;;;2.10;99.90;;;;;;5013184;28;20217;-94
2022/11/19 11:24:05;;;;;;;8.97;8.00;;;2.20;99.90;;;;;;5012691;28;20234;-93
2022/11/19 11:26:36;;;;;;;8.45;7.50;;;2.30;99.90;;;;;;5013082;28;20211;-93
2022/11/19 11:29:23;;;;;;;7.43;6.70;;;2.30;99.90;;;;;;5012938;28;20211;-93
2022/11/19 11:31:57;;;;;;;10.90;6.80;;;2.30;99.90;;;;;;5013014;28;20221;-94
2022/11/19 11:34:33;;;;;;;9.00;6.80;;;2.50;99.90;;;;;;5013172;28;20209;-94
2022/11/19 11:37:07;;;;;;;8.15;7.30;;;2.50;99.90;;;;;;5013321;28;20209;-94
2022/11/19 11:39:42;;;;;;;6.95;6.22;;;2.50;99.90;;;;;;5012745;28;20211;-94
2022/11/19 11:42:12;;;;;;;10.00;7.50;;;2.50;99.90;;;;;;5013143;28;20253;-94
2022/11/19 11:44:51;;;;;;;6.82;5.97;;;2.50;99.90;;;;;;5013395;28;20211;-95
2022/11/19 11:47:25;;;;;;;9.32;6.47;;;2.50;99.90;;;;;;5012316;28;20218;-93
2022/11/19 11:50:06;;;;;;;7.72;6.50;;;2.60;99.90;;;;;;5013137;28;20216;-94
2022/11/19 11:52:40;;;;;;;8.07;6.68;;;2.70;99.90;;;;;;5012916;28;20226;-94
2022/11/19 11:55:14;;;;;;;7.13;6.47;;;2.60;99.90;;;;;;5012749;28;20317;-89
2022/11/19 11:57:53;;;;;;;8.40;7.40;;;2.60;99.90;;;;;;5012133;28;20207;-90
2022/11/19 12:00:35;;;;;;;9.57;8.25;;;2.50;99.90;;;;;;5012821;28;20214;-89
2022/11/19 12:03:06;;;;;;;7.30;6.70;;;2.50;99.90;;;;;;5011986;28;20238;-89
2022/11/19 12:05:50;;;;;;;13.90;7.88;;;2.60;99.90;;;;;;5012775;28;20210;-89
2022/11/19 12:08:37;;;;;;;9.18;7.72;;;2.50;99.90;;;;;;5012584;28;20206;-89
2022/11/19 12:11:13;;;;;;;8.25;7.43;;;2.50;99.90;;;;;;5012619;28;20245;-89
2022/11/19 12:14:04;;;;;;;9.30;7.28;;;2.50;99.90;;;;;;5012447;28;20226;-89
2022/11/19 12:16:46;;;;;;;8.20;7.40;;;2.60;99.90;;;;;;5012407;28;20266;-89
2022/11/19 12:19:40;;;;;;;19.10;9.93;;;2.60;99.90;;;;;;5012938;28;20195;-89
2022/11/19 12:22:22;;;;;;;9.68;8.27;;;2.70;99.90;;;;;;5012678;28;20258;-89
2022/11/19 12:25:04;;;;;;;10.15;9.13;;;2.70;99.90;;;;;;5012771;28;20215;-89
2022/11/19 12:27:38;;;;;;;14.52;8.55;;;2.80;99.90;;;;;;5012166;28;20207;-88
2022/11/19 12:30:12;;;;;;;13.10;10.02;;;2.80;99.90;;;;;;5013327;28;20210;-89
2022/11/19 12:33:04;;;;;;;13.30;9.38;;;2.80;99.90;;;;;;5015880;28;20237;-89
2022/11/19 12:35:48;;;;;;;9.27;8.38;;;2.90;99.90;;;;;;5016249;28;20211;-89
2022/11/19 12:38:28;;;;;;;15.38;9.55;;;2.90;99.90;;;;;;5015720;28;20217;-93
2022/11/19 12:41:10;;;;;;;10.80;7.70;;;2.90;99.90;;;;;;5015935;28;20222;-93
2022/11/19 12:43:53;;;;;;;13.07;10.18;;;3.00;99.90;;;;;;5015610;28;20238;-94
2022/11/19 12:46:38;;;;;;;14.02;8.20;;;3.00;99.90;;;;;;5016037;28;20222;-94
2022/11/19 12:49:29;;;;;;;14.63;10.45;;;3.00;99.90;;;;;;5015663;28;20207;-94
2022/11/19 12:52:07;;;;;;;12.02;8.70;;;3.00;99.90;;;;;;5015768;28;20226;-93
2022/11/19 12:54:50;;;;;;;11.98;8.82;;;2.90;99.90;;;;;;5015628;28;20214;-94
2022/11/19 12:57:38;;;;;;;10.80;9.23;;;3.00;99.90;;;;;;5015172;28;20222;-94
2022/11/19 13:00:15;;;;;;;12.70;8.95;;;2.90;99.90;;;;;;5015737;28;20213;-94
2022/11/19 13:02:53;;;;;;;8.60;7.75;;;2.90;99.90;;;;;;5015649;28;20237;-94
2022/11/19 13:05:28;;;;;;;9.93;8.50;;;2.90;99.90;;;;;;5015418;28;20225;-94
2022/11/19 13:08:02;;;;;;;8.93;7.72;;;2.90;99.90;;;;;;5015221;28;20253;-94
2022/11/19 13:10:36;;;;;;;9.23;8.25;;;2.90;99.90;;;;;;5015155;28;20220;-94
2022/11/19 13:13:08;;;;;;;14.25;9.00;;;2.90;99.90;;;;;;5015310;28;20223;-94
2022/11/19 13:15:43;;;;;;;11.95;9.25;;;2.80;99.90;;;;;;5015497;28;20219;-94
2022/11/19 13:18:16;;;;;;;9.70;8.70;;;2.80;99.90;;;;;;5014930;28;20233;-94
2022/11/19 13:20:47;;;;;;;9.35;8.45;;;2.80;99.90;;;;;;5015188;28;20214;-94
2022/11/19 13:23:21;;;;;;;10.93;9.65;;;2.80;99.90;;;;;;5014903;28;20237;-95
2022/11/19 13:25:58;;;;;;;9.02;8.00;;;2.80;99.90;;;;;;5015272;28;20211;-94
2022/11/19 13:28:32;;;;;;;11.85;8.23;;;2.80;99.90;;;;;;5014879;28;20202;-94
2022/11/19 13:31:07;;;;;;;9.95;9.00;;;2.80;99.90;;;;;;5015200;28;20213;-94
2022/11/19 13:33:42;;;;;;;11.65;8.80;;;2.80;99.90;;;;;;5014851;28;20230;-94
2022/11/19 13:36:16;;;;;;;11.70;8.93;;;2.70;99.90;;;;;;5015031;28;20218;-94
2022/11/19 13:38:50;;;;;;;8.35;7.43;;;2.70;99.90;;;;;;5014675;28;20210;-95
2022/11/19 13:41:25;;;;;;;10.65;8.25;;;2.60;99.90;;;;;;5014916;28;20206;-95
2022/11/19 13:46:44;;;;;;;12.27;9.57;;;2.60;99.90;;;;;;5014462;28;20226;-94
2022/11/19 13:49:17;;;;;;;10.35;8.68;;;2.60;99.90;;;;;;5014569;28;20314;-94
2022/11/19 13:51:50;;;;;;;12.77;8.50;;;2.50;99.90;;;;;;5014405;28;20207;-94
2022/11/19 13:54:26;;;;;;;9.70;8.05;;;2.60;99.90;;;;;;5014407;28;20203;-94
2022/11/19 13:56:57;;;;;;;13.43;10.10;;;2.60;99.90;;;;;;5014563;28;20217;-94
2022/11/19 13:59:31;;;;;;;9.35;8.45;;;2.50;99.90;;;;;;5014981;28;20214;-94
2022/11/19 14:02:17;;;;;;;7.78;6.97;;;2.50;99.90;;;;;;5014407;28;20223;-95
2022/11/19 14:05:06;;;;;;;12.75;7.78;;;2.40;99.90;;;;;;5014426;28;20223;-95
2022/11/19 14:07:55;;;;;;;11.25;7.75;;;2.40;99.90;;;;;;5014055;28;20207;-95
2022/11/19 14:10:30;;;;;;;9.27;8.27;;;2.40;99.90;;;;;;5014147;28;20199;-95
2022/11/19 14:13:28;;;;;;;8.38;7.55;;;2.50;99.90;;;;;;5014136;28;20240;-94
2022/11/19 14:27:42;;;;;;;10.23;8.35;;;2.30;99.90;;;;;;5013823;28;20207;-95
2022/11/19 14:30:17;;;;;;;10.02;8.25;;;2.30;99.90;;;;;;5013959;28;20214;-95
2022/11/19 14:32:55;;;;;;;11.77;9.70;;;2.20;99.90;;;;;;5013891;28;20229;-95
2022/11/19 14:35:41;;;;;;;9.43;8.23;;;2.20;99.90;;;;;;5014325;28;20224;-95
2022/11/19 14:38:36;;;;;;;8.90;7.65;;;2.10;99.90;;;;;;5014015;28;20207;-95
2022/11/19 14:41:18;;;;;;;8.10;7.30;;;2.10;99.90;;;;;;5013660;28;20214;-94
2022/11/19 14:44:10;;;;;;;9.93;8.70;;;2.10;99.90;;;;;;5013305;28;20219;-95
2022/11/19 14:46:42;;;;;;;9.15;8.18;;;2.00;99.90;;;;;;5013606;28;20214;-95
2022/11/19 14:49:26;;;;;;;11.48;8.60;;;2.10;99.90;;;;;;5013792;28;20203;-94
2022/11/19 14:51:56;;;;;;;9.05;7.47;;;2.00;99.90;;;;;;5013564;28;20234;-94
2022/11/19 14:54:35;;;;;;;11.23;9.25;;;2.10;99.90;;;;;;5012572;28;20206;-94
2022/11/19 14:57:07;;;;;;;10.93;8.10;;;2.10;99.90;;;;;;5013357;28;20222;-94
2022/11/19 14:59:38;;;;;;;9.55;8.55;;;2.10;99.90;;;;;;5013727;28;20211;-94
2022/11/19 15:02:23;;;;;;;9.07;7.95;;;2.10;99.90;;;;;;5013269;28;20313;-94
2022/11/19 15:04:56;;;;;;;9.73;8.65;;;2.10;99.90;;;;;;5012956;28;20226;-95
2022/11/19 15:07:44;;;;;;;9.82;8.77;;;2.10;99.90;;;;;;5013148;28;20215;-94